sensor_id;sensor_type;location;lat;lon;timestamp;temperature;humidity
1992;DHT22;997;48.448;8.924;2024-02-04T00:01:39;7.80;99.90
1992;DHT22;997;48.448;8.924;2024-02-04T00:04:05;7.70;99.90
1992;DHT22;997;48.448;8.924;2024-02-04T00:06:31;7.60;99.90
1992;DHT22;997;48.448;8.924;2024-02-04T00:08:57;7.60;99.90
1992;DHT22;997;48.448;8.924;2024-02-04T00:11:23;7.60;99.90
1992;DHT22;997;48.448;8.924;2024-02-04T00:13:48;7.70;99.90
1992;DHT22;997;48.448;8.924;2024-02-04T00:16:14;7.70;99.90
1992;DHT22;997;48.448;8.924;2024-02-04T00:18:40;7.70;99.90
1992;DHT22;997;48.448;8.924;2024-02-04T00:21:05;7.60;99.90
1992;DHT22;997;48.448;8.924;2024-02-04T00:23:31;7.70;99.90
1992;DHT22;997;48.448;8.924;2024-02-04T00:25:57;7.60;99.90
1992;DHT22;997;48.448;8.924;2024-02-04T00:28:23;7.60;99.90
1992;DHT22;997;48.448;8.924;2024-02-04T00:30:48;7.60;99.90
1992;DHT22;997;48.448;8.924;2024-02-04T00:33:15;7.60;99.90
1992;DHT22;997;48.448;8.924;2024-02-04T00:35:41;7.60;99.90
1992;DHT22;997;48.448;8.924;2024-02-04T00:38:08;7.60;99.90
1992;DHT22;997;48.448;8.924;2024-02-04T00:40:34;7.60;99.90
1992;DHT22;997;48.448;8.924;2024-02-04T00:43:00;7.50;99.90
1992;DHT22;997;48.448;8.924;2024-02-04T00:45:26;7.50;99.90
1992;DHT22;997;48.448;8.924;2024-02-04T00:47:51;7.50;99.90
1992;DHT22;997;48.448;8.924;2024-02-04T00:50:17;7.50;99.90
1992;DHT22;997;48.448;8.924;2024-02-04T00:52:43;7.40;99.90
1992;DHT22;997;48.448;8.924;2024-02-04T00:55:09;7.40;99.90
1992;DHT22;997;48.448;8.924;2024-02-04T00:57:35;7.40;99.90
1992;DHT22;997;48.448;8.924;2024-02-04T01:00:00;7.40;99.90
1992;DHT22;997;48.448;8.924;2024-02-04T01:02:26;7.50;99.90
1992;DHT22;997;48.448;8.924;2024-02-04T01:04:52;7.40;99.90
1992;DHT22;997;48.448;8.924;2024-02-04T01:07:18;7.40;99.90
1992;DHT22;997;48.448;8.924;2024-02-04T01:09:43;7.40;99.90
1992;DHT22;997;48.448;8.924;2024-02-04T01:12:09;7.30;99.90
1992;DHT22;997;48.448;8.924;2024-02-04T01:14:35;7.30;99.90
1992;DHT22;997;48.448;8.924;2024-02-04T01:17:00;7.30;99.90
1992;DHT22;997;48.448;8.924;2024-02-04T01:19:26;7.30;99.90
1992;DHT22;997;48.448;8.924;2024-02-04T01:21:52;7.20;99.90
1992;DHT22;997;48.448;8.924;2024-02-04T01:24:17;7.30;99.90
1992;DHT22;997;48.448;8.924;2024-02-04T01:26:43;7.30;99.90
1992;DHT22;997;48.448;8.924;2024-02-04T01:29:09;7.20;99.90
1992;DHT22;997;48.448;8.924;2024-02-04T01:31:34;7.20;99.90
1992;DHT22;997;48.448;8.924;2024-02-04T01:34:00;7.20;99.90
1992;DHT22;997;48.448;8.924;2024-02-04T01:36:26;7.30;99.90
1992;DHT22;997;48.448;8.924;2024-02-04T01:38:51;7.40;99.90
1992;DHT22;997;48.448;8.924;2024-02-04T01:41:17;7.40;99.90
1992;DHT22;997;48.448;8.924;2024-02-04T01:43:43;7.30;99.90
1992;DHT22;997;48.448;8.924;2024-02-04T01:46:09;7.20;99.90
1992;DHT22;997;48.448;8.924;2024-02-04T01:48:35;7.20;99.90
1992;DHT22;997;48.448;8.924;2024-02-04T01:51:01;7.20;99.90
1992;DHT22;997;48.448;8.924;2024-02-04T01:53:28;7.10;99.90
1992;DHT22;997;48.448;8.924;2024-02-04T01:55:55;7.10;99.90
1992;DHT22;997;48.448;8.924;2024-02-04T01:58:22;7.20;99.90
1992;DHT22;997;48.448;8.924;2024-02-04T02:00:48;7.20;99.90
1992;DHT22;997;48.448;8.924;2024-02-04T02:03:16;7.10;99.90
1992;DHT22;997;48.448;8.924;2024-02-04T02:05:42;7.10;99.90
1992;DHT22;997;48.448;8.924;2024-02-04T02:08:08;7.10;99.90
1992;DHT22;997;48.448;8.924;2024-02-04T02:10:34;7.10;99.90
1992;DHT22;997;48.448;8.924;2024-02-04T02:13:07;7.00;99.90
1992;DHT22;997;48.448;8.924;2024-02-04T02:15:45;7.00;99.90
1992;DHT22;997;48.448;8.924;2024-02-04T02:24:13;7.00;99.90
1992;DHT22;997;48.448;8.924;2024-02-04T02:26:40;7.00;99.90
1992;DHT22;997;48.448;8.924;2024-02-04T02:29:06;6.90;99.90
1992;DHT22;997;48.448;8.924;2024-02-04T02:31:35;6.90;99.90
1992;DHT22;997;48.448;8.924;2024-02-04T02:34:01;6.90;99.90
1992;DHT22;997;48.448;8.924;2024-02-04T02:36:29;6.90;99.90
1992;DHT22;997;48.448;8.924;2024-02-04T02:39:21;6.90;99.90
1992;DHT22;997;48.448;8.924;2024-02-04T02:41:50;6.90;99.90
1992;DHT22;997;48.448;8.924;2024-02-04T02:44:19;6.80;99.90
1992;DHT22;997;48.448;8.924;2024-02-04T02:46:47;6.80;99.90
1992;DHT22;997;48.448;8.924;2024-02-04T02:49:13;6.80;99.90
1992;DHT22;997;48.448;8.924;2024-02-04T02:51:39;6.80;99.90
1992;DHT22;997;48.448;8.924;2024-02-04T02:54:05;6.80;99.90
1992;DHT22;997;48.448;8.924;2024-02-04T02:56:30;6.80;99.90
1992;DHT22;997;48.448;8.924;2024-02-04T02:58:56;6.80;99.90
1992;DHT22;997;48.448;8.924;2024-02-04T03:01:22;6.80;99.90
1992;DHT22;997;48.448;8.924;2024-02-04T03:03:49;6.80;99.90
1992;DHT22;997;48.448;8.924;2024-02-04T03:06:14;6.80;99.90
1992;DHT22;997;48.448;8.924;2024-02-04T03:08:40;6.80;99.90
1992;DHT22;997;48.448;8.924;2024-02-04T03:11:06;6.80;99.90
1992;DHT22;997;48.448;8.924;2024-02-04T03:13:31;6.90;99.90
1992;DHT22;997;48.448;8.924;2024-02-04T03:15:57;6.90;99.90
1992;DHT22;997;48.448;8.924;2024-02-04T03:18:23;6.90;99.90
1992;DHT22;997;48.448;8.924;2024-02-04T03:20:48;6.90;99.90
1992;DHT22;997;48.448;8.924;2024-02-04T03:23:14;7.00;99.90
1992;DHT22;997;48.448;8.924;2024-02-04T03:25:39;7.00;99.90
1992;DHT22;997;48.448;8.924;2024-02-04T03:28:05;7.00;99.90
1992;DHT22;997;48.448;8.924;2024-02-04T03:30:31;6.90;99.90
1992;DHT22;997;48.448;8.924;2024-02-04T03:32:56;6.90;99.90
1992;DHT22;997;48.448;8.924;2024-02-04T03:35:22;6.90;99.90
1992;DHT22;997;48.448;8.924;2024-02-04T03:37:47;6.90;99.90
1992;DHT22;997;48.448;8.924;2024-02-04T03:40:13;6.90;99.90
1992;DHT22;997;48.448;8.924;2024-02-04T03:42:39;6.90;99.90
1992;DHT22;997;48.448;8.924;2024-02-04T03:45:06;7.00;99.90
1992;DHT22;997;48.448;8.924;2024-02-04T03:47:32;7.00;99.90
1992;DHT22;997;48.448;8.924;2024-02-04T03:49:57;7.00;99.90
1992;DHT22;997;48.448;8.924;2024-02-04T03:52:23;6.90;99.90
1992;DHT22;997;48.448;8.924;2024-02-04T03:54:49;6.90;99.90
1992;DHT22;997;48.448;8.924;2024-02-04T03:57:14;6.90;99.90
1992;DHT22;997;48.448;8.924;2024-02-04T03:59:40;6.90;99.90
1992;DHT22;997;48.448;8.924;2024-02-04T04:02:05;6.90;99.90
1992;DHT22;997;48.448;8.924;2024-02-04T04:04:31;6.90;99.90
1992;DHT22;997;48.448;8.924;2024-02-04T04:06:57;6.90;99.90
1992;DHT22;997;48.448;8.924;2024-02-04T04:09:22;6.90;99.90
1992;DHT22;997;48.448;8.924;2024-02-04T04:11:48;6.80;99.90
1992;DHT22;997;48.448;8.924;2024-02-04T04:14:14;6.80;99.90
1992;DHT22;997;48.448;8.924;2024-02-04T04:16:39;6.70;99.90
1992;DHT22;997;48.448;8.924;2024-02-04T04:19:05;6.70;99.90
1992;DHT22;997;48.448;8.924;2024-02-04T04:21:31;6.60;99.90
1992;DHT22;997;48.448;8.924;2024-02-04T04:23:56;6.50;99.90
1992;DHT22;997;48.448;8.924;2024-02-04T04:26:22;6.50;99.90
1992;DHT22;997;48.448;8.924;2024-02-04T04:28:48;6.50;99.90
1992;DHT22;997;48.448;8.924;2024-02-04T04:31:13;6.50;99.90
1992;DHT22;997;48.448;8.924;2024-02-04T04:33:39;6.50;99.90
1992;DHT22;997;48.448;8.924;2024-02-04T04:36:05;6.40;99.90
1992;DHT22;997;48.448;8.924;2024-02-04T04:38:30;6.40;99.90
1992;DHT22;997;48.448;8.924;2024-02-04T04:40:56;6.40;99.90
1992;DHT22;997;48.448;8.924;2024-02-04T04:43:22;6.40;99.90
1992;DHT22;997;48.448;8.924;2024-02-04T04:45:47;6.40;99.90
1992;DHT22;997;48.448;8.924;2024-02-04T04:48:13;6.40;99.90
1992;DHT22;997;48.448;8.924;2024-02-04T04:50:38;6.40;99.90
1992;DHT22;997;48.448;8.924;2024-02-04T04:53:04;6.40;99.90
1992;DHT22;997;48.448;8.924;2024-02-04T04:55:30;6.40;99.90
1992;DHT22;997;48.448;8.924;2024-02-04T04:57:55;6.40;99.90
1992;DHT22;997;48.448;8.924;2024-02-04T05:00:21;6.40;99.90
1992;DHT22;997;48.448;8.924;2024-02-04T05:02:47;6.40;99.90
1992;DHT22;997;48.448;8.924;2024-02-04T05:05:13;6.40;99.90
1992;DHT22;997;48.448;8.924;2024-02-04T05:07:39;6.50;99.90
1992;DHT22;997;48.448;8.924;2024-02-04T05:10:05;6.50;99.90
1992;DHT22;997;48.448;8.924;2024-02-04T05:12:32;6.40;99.90
1992;DHT22;997;48.448;8.924;2024-02-04T05:14:59;6.40;99.90
1992;DHT22;997;48.448;8.924;2024-02-04T05:17:24;6.40;99.90
1992;DHT22;997;48.448;8.924;2024-02-04T05:19:50;6.40;99.90
1992;DHT22;997;48.448;8.924;2024-02-04T05:22:15;6.50;99.90
1992;DHT22;997;48.448;8.924;2024-02-04T05:24:41;6.40;99.90
1992;DHT22;997;48.448;8.924;2024-02-04T05:27:07;6.30;99.90
1992;DHT22;997;48.448;8.924;2024-02-04T05:29:33;6.40;99.90
1992;DHT22;997;48.448;8.924;2024-02-04T05:31:59;6.50;99.90
1992;DHT22;997;48.448;8.924;2024-02-04T05:34:24;6.50;99.90
1992;DHT22;997;48.448;8.924;2024-02-04T05:36:50;6.50;99.90
1992;DHT22;997;48.448;8.924;2024-02-04T05:39:16;6.50;99.90
1992;DHT22;997;48.448;8.924;2024-02-04T05:41:43;6.50;99.90
1992;DHT22;997;48.448;8.924;2024-02-04T05:44:09;6.50;99.90
1992;DHT22;997;48.448;8.924;2024-02-04T05:46:38;6.50;99.90
1992;DHT22;997;48.448;8.924;2024-02-04T05:49:04;6.50;99.90
1992;DHT22;997;48.448;8.924;2024-02-04T05:51:32;6.50;99.90
1992;DHT22;997;48.448;8.924;2024-02-04T05:53:58;6.60;99.90
1992;DHT22;997;48.448;8.924;2024-02-04T05:56:24;6.50;99.90
1992;DHT22;997;48.448;8.924;2024-02-04T05:58:50;6.50;99.90
1992;DHT22;997;48.448;8.924;2024-02-04T06:01:16;6.40;99.90
1992;DHT22;997;48.448;8.924;2024-02-04T06:03:42;6.50;99.90
1992;DHT22;997;48.448;8.924;2024-02-04T06:06:09;6.60;99.90
1992;DHT22;997;48.448;8.924;2024-02-04T06:08:35;6.50;99.90
1992;DHT22;997;48.448;8.924;2024-02-04T06:11:00;6.50;99.90
1992;DHT22;997;48.448;8.924;2024-02-04T06:13:26;6.50;99.90
1992;DHT22;997;48.448;8.924;2024-02-04T06:15:51;6.60;99.90
1992;DHT22;997;48.448;8.924;2024-02-04T06:18:17;6.60;99.90
1992;DHT22;997;48.448;8.924;2024-02-04T06:20:43;6.60;99.90
1992;DHT22;997;48.448;8.924;2024-02-04T06:23:08;6.50;99.90
1992;DHT22;997;48.448;8.924;2024-02-04T06:25:34;6.50;99.90
1992;DHT22;997;48.448;8.924;2024-02-04T06:28:00;6.60;99.90
1992;DHT22;997;48.448;8.924;2024-02-04T06:30:25;6.60;99.90
1992;DHT22;997;48.448;8.924;2024-02-04T06:32:51;6.60;99.90
1992;DHT22;997;48.448;8.924;2024-02-04T06:35:16;6.60;99.90
1992;DHT22;997;48.448;8.924;2024-02-04T06:37:42;6.60;99.90
1992;DHT22;997;48.448;8.924;2024-02-04T06:40:11;6.60;99.90
1992;DHT22;997;48.448;8.924;2024-02-04T06:42:36;6.60;99.90
1992;DHT22;997;48.448;8.924;2024-02-04T06:45:02;6.60;99.90
1992;DHT22;997;48.448;8.924;2024-02-04T06:47:28;6.60;99.90
1992;DHT22;997;48.448;8.924;2024-02-04T06:49:54;6.60;99.90
1992;DHT22;997;48.448;8.924;2024-02-04T06:52:19;6.70;99.90
1992;DHT22;997;48.448;8.924;2024-02-04T06:54:45;6.70;99.90
1992;DHT22;997;48.448;8.924;2024-02-04T06:57:11;6.70;99.90
1992;DHT22;997;48.448;8.924;2024-02-04T06:59:36;6.60;99.90
1992;DHT22;997;48.448;8.924;2024-02-04T07:02:02;6.60;99.90
1992;DHT22;997;48.448;8.924;2024-02-04T07:04:28;6.60;99.90
1992;DHT22;997;48.448;8.924;2024-02-04T07:06:54;6.50;99.90
1992;DHT22;997;48.448;8.924;2024-02-04T07:09:19;6.60;99.90
1992;DHT22;997;48.448;8.924;2024-02-04T07:11:45;6.60;99.90
1992;DHT22;997;48.448;8.924;2024-02-04T07:14:11;6.60;99.90
1992;DHT22;997;48.448;8.924;2024-02-04T07:16:37;6.60;99.90
1992;DHT22;997;48.448;8.924;2024-02-04T07:19:02;6.60;99.90
1992;DHT22;997;48.448;8.924;2024-02-04T07:21:29;6.60;99.90
1992;DHT22;997;48.448;8.924;2024-02-04T07:23:55;6.60;99.90
1992;DHT22;997;48.448;8.924;2024-02-04T07:26:21;6.70;99.90
1992;DHT22;997;48.448;8.924;2024-02-04T07:28:47;6.70;99.90
1992;DHT22;997;48.448;8.924;2024-02-04T07:31:13;6.80;99.90
1992;DHT22;997;48.448;8.924;2024-02-04T07:33:38;6.80;99.90
1992;DHT22;997;48.448;8.924;2024-02-04T07:36:04;6.80;99.90
1992;DHT22;997;48.448;8.924;2024-02-04T07:38:30;6.80;99.90
1992;DHT22;997;48.448;8.924;2024-02-04T07:40:56;6.80;99.90
1992;DHT22;997;48.448;8.924;2024-02-04T07:43:24;6.80;99.90
1992;DHT22;997;48.448;8.924;2024-02-04T07:45:50;6.80;99.90
1992;DHT22;997;48.448;8.924;2024-02-04T07:48:16;6.80;99.90
1992;DHT22;997;48.448;8.924;2024-02-04T07:50:42;6.90;99.90
1992;DHT22;997;48.448;8.924;2024-02-04T07:53:08;6.80;99.90
1992;DHT22;997;48.448;8.924;2024-02-04T07:55:34;6.80;99.90
1992;DHT22;997;48.448;8.924;2024-02-04T07:57:59;6.80;99.90
1992;DHT22;997;48.448;8.924;2024-02-04T08:00:25;6.80;99.90
1992;DHT22;997;48.448;8.924;2024-02-04T08:02:51;6.90;99.90
1992;DHT22;997;48.448;8.924;2024-02-04T08:05:16;6.90;99.90
1992;DHT22;997;48.448;8.924;2024-02-04T08:07:42;7.00;99.90
1992;DHT22;997;48.448;8.924;2024-02-04T08:10:08;7.10;99.90
1992;DHT22;997;48.448;8.924;2024-02-04T08:12:34;7.00;99.90
1992;DHT22;997;48.448;8.924;2024-02-04T08:15:00;7.00;99.90
1992;DHT22;997;48.448;8.924;2024-02-04T08:17:26;7.00;99.90
1992;DHT22;997;48.448;8.924;2024-02-04T08:19:54;7.00;99.90
1992;DHT22;997;48.448;8.924;2024-02-04T08:22:19;7.00;99.90
1992;DHT22;997;48.448;8.924;2024-02-04T08:24:45;7.00;99.90
1992;DHT22;997;48.448;8.924;2024-02-04T08:27:10;7.00;99.90
1992;DHT22;997;48.448;8.924;2024-02-04T08:29:36;7.10;99.90
1992;DHT22;997;48.448;8.924;2024-02-04T08:32:02;7.10;99.90
1992;DHT22;997;48.448;8.924;2024-02-04T08:34:28;7.10;99.90
1992;DHT22;997;48.448;8.924;2024-02-04T08:36:53;7.20;99.90
1992;DHT22;997;48.448;8.924;2024-02-04T08:39:19;7.20;99.90
1992;DHT22;997;48.448;8.924;2024-02-04T08:41:44;7.30;99.90
1992;DHT22;997;48.448;8.924;2024-02-04T08:44:10;7.30;99.90
1992;DHT22;997;48.448;8.924;2024-02-04T08:46:36;7.30;99.90
1992;DHT22;997;48.448;8.924;2024-02-04T08:49:01;7.40;99.90
1992;DHT22;997;48.448;8.924;2024-02-04T08:51:27;7.40;99.90
1992;DHT22;997;48.448;8.924;2024-02-04T08:53:53;7.40;99.90
1992;DHT22;997;48.448;8.924;2024-02-04T08:56:18;7.40;99.90
1992;DHT22;997;48.448;8.924;2024-02-04T08:58:45;7.40;99.90
1992;DHT22;997;48.448;8.924;2024-02-04T09:01:11;7.40;99.90
1992;DHT22;997;48.448;8.924;2024-02-04T09:03:36;7.40;99.90
1992;DHT22;997;48.448;8.924;2024-02-04T09:06:03;7.40;99.90
1992;DHT22;997;48.448;8.924;2024-02-04T09:08:28;7.50;99.90
1992;DHT22;997;48.448;8.924;2024-02-04T09:10:54;7.60;99.90
1992;DHT22;997;48.448;8.924;2024-02-04T09:13:20;7.60;99.90
1992;DHT22;997;48.448;8.924;2024-02-04T09:15:46;7.60;99.90
1992;DHT22;997;48.448;8.924;2024-02-04T09:18:11;7.70;99.90
1992;DHT22;997;48.448;8.924;2024-02-04T09:20:37;7.80;99.90
1992;DHT22;997;48.448;8.924;2024-02-04T09:23:03;7.80;99.90
1992;DHT22;997;48.448;8.924;2024-02-04T09:25:30;8.00;99.90
1992;DHT22;997;48.448;8.924;2024-02-04T09:27:56;8.00;99.90
1992;DHT22;997;48.448;8.924;2024-02-04T09:30:21;7.90;99.90
1992;DHT22;997;48.448;8.924;2024-02-04T09:32:47;8.00;99.90
1992;DHT22;997;48.448;8.924;2024-02-04T09:35:13;8.00;99.90
1992;DHT22;997;48.448;8.924;2024-02-04T09:37:38;7.90;99.90
1992;DHT22;997;48.448;8.924;2024-02-04T09:40:05;8.00;99.90
1992;DHT22;997;48.448;8.924;2024-02-04T09:42:30;7.80;99.90
1992;DHT22;997;48.448;8.924;2024-02-04T09:44:57;8.00;99.90
1992;DHT22;997;48.448;8.924;2024-02-04T09:47:23;8.10;99.90
1992;DHT22;997;48.448;8.924;2024-02-04T09:49:48;8.20;99.90
1992;DHT22;997;48.448;8.924;2024-02-04T09:52:19;8.10;99.90
1992;DHT22;997;48.448;8.924;2024-02-04T09:54:50;8.20;99.90
1992;DHT22;997;48.448;8.924;2024-02-04T09:57:16;8.20;99.90
1992;DHT22;997;48.448;8.924;2024-02-04T09:59:46;8.20;99.90
1992;DHT22;997;48.448;8.924;2024-02-04T10:02:13;8.30;99.90
1992;DHT22;997;48.448;8.924;2024-02-04T10:04:38;8.30;99.90
1992;DHT22;997;48.448;8.924;2024-02-04T10:07:04;8.50;99.90
1992;DHT22;997;48.448;8.924;2024-02-04T10:09:30;8.50;99.90
1992;DHT22;997;48.448;8.924;2024-02-04T10:11:57;8.50;99.90
1992;DHT22;997;48.448;8.924;2024-02-04T10:14:23;8.60;99.90
1992;DHT22;997;48.448;8.924;2024-02-04T10:16:49;8.50;99.90
1992;DHT22;997;48.448;8.924;2024-02-04T10:19:15;8.50;99.90
1992;DHT22;997;48.448;8.924;2024-02-04T10:21:41;8.50;99.90
1992;DHT22;997;48.448;8.924;2024-02-04T10:24:07;8.40;99.90
1992;DHT22;997;48.448;8.924;2024-02-04T10:26:33;8.40;99.90
1992;DHT22;997;48.448;8.924;2024-02-04T10:29:03;8.40;99.90
1992;DHT22;997;48.448;8.924;2024-02-04T10:31:29;8.40;99.90
1992;DHT22;997;48.448;8.924;2024-02-04T10:33:55;8.50;99.90
1992;DHT22;997;48.448;8.924;2024-02-04T10:36:21;8.60;99.90
1992;DHT22;997;48.448;8.924;2024-02-04T10:38:47;8.70;99.90
1992;DHT22;997;48.448;8.924;2024-02-04T10:41:17;8.80;99.90
1992;DHT22;997;48.448;8.924;2024-02-04T10:43:44;8.90;99.90
1992;DHT22;997;48.448;8.924;2024-02-04T10:46:19;9.10;99.90
1992;DHT22;997;48.448;8.924;2024-02-04T10:48:55;9.20;99.90
1992;DHT22;997;48.448;8.924;2024-02-04T10:51:24;9.30;99.90
1992;DHT22;997;48.448;8.924;2024-02-04T10:53:51;9.30;99.90
1992;DHT22;997;48.448;8.924;2024-02-04T10:56:22;9.40;99.90
1992;DHT22;997;48.448;8.924;2024-02-04T10:58:50;9.50;99.90
1992;DHT22;997;48.448;8.924;2024-02-04T11:01:17;9.40;99.90
1992;DHT22;997;48.448;8.924;2024-02-04T11:03:45;9.40;99.90
1992;DHT22;997;48.448;8.924;2024-02-04T11:06:11;9.50;99.90
1992;DHT22;997;48.448;8.924;2024-02-04T11:08:38;9.40;99.90
1992;DHT22;997;48.448;8.924;2024-02-04T11:11:04;9.40;99.90
1992;DHT22;997;48.448;8.924;2024-02-04T11:13:31;9.40;99.90
1992;DHT22;997;48.448;8.924;2024-02-04T11:15:58;9.40;99.90
1992;DHT22;997;48.448;8.924;2024-02-04T11:19:10;9.50;99.90
1992;DHT22;997;48.448;8.924;2024-02-04T11:27:18;9.50;99.90
1992;DHT22;997;48.448;8.924;2024-02-04T11:29:44;9.40;99.90
1992;DHT22;997;48.448;8.924;2024-02-04T11:32:11;9.50;99.90
1992;DHT22;997;48.448;8.924;2024-02-04T11:34:37;9.60;99.90
1992;DHT22;997;48.448;8.924;2024-02-04T11:37:18;9.80;99.90
1992;DHT22;997;48.448;8.924;2024-02-04T11:39:49;10.00;99.90
1992;DHT22;997;48.448;8.924;2024-02-04T11:42:15;10.10;99.90
1992;DHT22;997;48.448;8.924;2024-02-04T11:44:44;10.10;99.90
1992;DHT22;997;48.448;8.924;2024-02-04T11:47:10;10.20;99.90
1992;DHT22;997;48.448;8.924;2024-02-04T11:49:36;10.30;99.90
1992;DHT22;997;48.448;8.924;2024-02-04T11:52:02;10.40;99.90
1992;DHT22;997;48.448;8.924;2024-02-04T11:54:28;10.50;99.90
1992;DHT22;997;48.448;8.924;2024-02-04T11:56:53;10.60;99.90
1992;DHT22;997;48.448;8.924;2024-02-04T11:59:24;10.60;99.90
1992;DHT22;997;48.448;8.924;2024-02-04T12:01:56;10.70;99.90
1992;DHT22;997;48.448;8.924;2024-02-04T12:04:23;10.60;99.90
1992;DHT22;997;48.448;8.924;2024-02-04T12:06:50;10.60;99.90
1992;DHT22;997;48.448;8.924;2024-02-04T12:09:19;10.60;99.90
1992;DHT22;997;48.448;8.924;2024-02-04T12:11:45;10.60;99.90
1992;DHT22;997;48.448;8.924;2024-02-04T12:14:10;10.50;99.90
1992;DHT22;997;48.448;8.924;2024-02-04T12:16:36;10.50;99.90
1992;DHT22;997;48.448;8.924;2024-02-04T12:19:03;10.50;99.90
1992;DHT22;997;48.448;8.924;2024-02-04T12:21:30;10.50;99.90
1992;DHT22;997;48.448;8.924;2024-02-04T12:23:56;10.50;99.90
1992;DHT22;997;48.448;8.924;2024-02-04T12:26:23;10.60;99.90
1992;DHT22;997;48.448;8.924;2024-02-04T12:28:49;10.60;99.90
1992;DHT22;997;48.448;8.924;2024-02-04T12:31:24;10.70;99.90
1992;DHT22;997;48.448;8.924;2024-02-04T12:33:54;10.80;99.90
1992;DHT22;997;48.448;8.924;2024-02-04T12:36:23;10.90;99.90
1992;DHT22;997;48.448;8.924;2024-02-04T12:38:56;11.00;99.90
1992;DHT22;997;48.448;8.924;2024-02-04T12:41:22;11.00;99.90
1992;DHT22;997;48.448;8.924;2024-02-04T12:43:52;11.00;99.90
1992;DHT22;997;48.448;8.924;2024-02-04T12:46:22;10.90;99.90
1992;DHT22;997;48.448;8.924;2024-02-04T12:54:10;11.00;99.90
1992;DHT22;997;48.448;8.924;2024-02-04T12:56:51;11.10;99.90
1992;DHT22;997;48.448;8.924;2024-02-04T12:59:26;10.90;99.90
1992;DHT22;997;48.448;8.924;2024-02-04T13:04:48;10.90;99.90
1992;DHT22;997;48.448;8.924;2024-02-04T13:07:14;10.80;99.90
1992;DHT22;997;48.448;8.924;2024-02-04T13:09:43;10.90;99.90
1992;DHT22;997;48.448;8.924;2024-02-04T13:12:10;11.00;99.90
1992;DHT22;997;48.448;8.924;2024-02-04T13:14:37;11.10;99.90
1992;DHT22;997;48.448;8.924;2024-02-04T13:17:04;11.10;99.90
1992;DHT22;997;48.448;8.924;2024-02-04T13:19:38;11.10;99.90
1992;DHT22;997;48.448;8.924;2024-02-04T13:22:07;11.20;99.90
1992;DHT22;997;48.448;8.924;2024-02-04T13:24:35;11.30;99.90
1992;DHT22;997;48.448;8.924;2024-02-04T13:27:01;11.30;99.90
1992;DHT22;997;48.448;8.924;2024-02-04T13:29:28;11.40;99.90
1992;DHT22;997;48.448;8.924;2024-02-04T13:31:54;11.50;99.90
1992;DHT22;997;48.448;8.924;2024-02-04T13:34:20;11.50;99.90
1992;DHT22;997;48.448;8.924;2024-02-04T13:36:46;11.50;99.90
1992;DHT22;997;48.448;8.924;2024-02-04T13:39:12;11.40;99.90
1992;DHT22;997;48.448;8.924;2024-02-04T13:41:40;11.40;99.90
1992;DHT22;997;48.448;8.924;2024-02-04T13:44:06;11.40;99.90
1992;DHT22;997;48.448;8.924;2024-02-04T13:46:32;11.30;99.90
1992;DHT22;997;48.448;8.924;2024-02-04T13:48:58;11.20;99.90
1992;DHT22;997;48.448;8.924;2024-02-04T13:51:24;11.10;99.90
1992;DHT22;997;48.448;8.924;2024-02-04T13:53:49;11.00;99.90
1992;DHT22;997;48.448;8.924;2024-02-04T13:56:15;10.90;99.90
1992;DHT22;997;48.448;8.924;2024-02-04T13:58:44;10.90;99.90
1992;DHT22;997;48.448;8.924;2024-02-04T14:01:10;10.80;99.90
1992;DHT22;997;48.448;8.924;2024-02-04T14:03:36;10.80;99.90
1992;DHT22;997;48.448;8.924;2024-02-04T14:06:01;10.80;99.90
1992;DHT22;997;48.448;8.924;2024-02-04T14:08:29;10.80;99.90
1992;DHT22;997;48.448;8.924;2024-02-04T14:10:55;10.90;99.90
1992;DHT22;997;48.448;8.924;2024-02-04T14:13:20;11.00;99.90
1992;DHT22;997;48.448;8.924;2024-02-04T14:15:46;10.90;99.90
1992;DHT22;997;48.448;8.924;2024-02-04T14:18:11;10.90;99.90
1992;DHT22;997;48.448;8.924;2024-02-04T14:20:37;11.00;99.90
1992;DHT22;997;48.448;8.924;2024-02-04T14:23:03;11.00;99.90
1992;DHT22;997;48.448;8.924;2024-02-04T14:25:28;11.00;99.90
1992;DHT22;997;48.448;8.924;2024-02-04T14:27:54;10.90;99.90
1992;DHT22;997;48.448;8.924;2024-02-04T14:30:20;10.80;99.90
1992;DHT22;997;48.448;8.924;2024-02-04T14:32:45;10.90;99.90
1992;DHT22;997;48.448;8.924;2024-02-04T14:35:11;10.90;99.90
1992;DHT22;997;48.448;8.924;2024-02-04T14:37:37;10.80;99.90
1992;DHT22;997;48.448;8.924;2024-02-04T14:40:05;10.90;99.90
1992;DHT22;997;48.448;8.924;2024-02-04T14:42:32;10.90;99.90
1992;DHT22;997;48.448;8.924;2024-02-04T14:44:58;10.70;99.90
1992;DHT22;997;48.448;8.924;2024-02-04T14:47:28;10.60;99.90
1992;DHT22;997;48.448;8.924;2024-02-04T14:49:54;10.60;99.90
1992;DHT22;997;48.448;8.924;2024-02-04T14:52:20;10.60;99.90
1992;DHT22;997;48.448;8.924;2024-02-04T14:54:46;10.50;99.90
1992;DHT22;997;48.448;8.924;2024-02-04T14:57:12;10.50;99.90
1992;DHT22;997;48.448;8.924;2024-02-04T14:59:39;10.40;99.90
1992;DHT22;997;48.448;8.924;2024-02-04T15:02:04;10.30;99.90
1992;DHT22;997;48.448;8.924;2024-02-04T15:04:31;10.30;99.90
1992;DHT22;997;48.448;8.924;2024-02-04T15:06:58;10.30;99.90
1992;DHT22;997;48.448;8.924;2024-02-04T15:09:23;10.30;99.90
1992;DHT22;997;48.448;8.924;2024-02-04T15:11:49;10.30;99.90
1992;DHT22;997;48.448;8.924;2024-02-04T15:14:15;10.30;99.90
1992;DHT22;997;48.448;8.924;2024-02-04T15:16:42;10.20;99.90
1992;DHT22;997;48.448;8.924;2024-02-04T15:19:08;10.10;99.90
1992;DHT22;997;48.448;8.924;2024-02-04T15:21:35;10.10;99.90
1992;DHT22;997;48.448;8.924;2024-02-04T15:24:01;10.10;99.90
1992;DHT22;997;48.448;8.924;2024-02-04T15:26:34;10.20;99.90
1992;DHT22;997;48.448;8.924;2024-02-04T15:29:03;10.20;99.90
1992;DHT22;997;48.448;8.924;2024-02-04T15:31:30;10.10;99.90
1992;DHT22;997;48.448;8.924;2024-02-04T15:33:56;10.10;99.90
1992;DHT22;997;48.448;8.924;2024-02-04T15:36:22;10.00;99.90
1992;DHT22;997;48.448;8.924;2024-02-04T15:38:50;10.10;99.90
1992;DHT22;997;48.448;8.924;2024-02-04T15:41:15;10.10;99.90
1992;DHT22;997;48.448;8.924;2024-02-04T15:43:41;10.10;99.90
1992;DHT22;997;48.448;8.924;2024-02-04T15:46:08;10.00;99.90
1992;DHT22;997;48.448;8.924;2024-02-04T15:48:40;10.00;99.90
1992;DHT22;997;48.448;8.924;2024-02-04T15:51:09;10.10;99.90
1992;DHT22;997;48.448;8.924;2024-02-04T15:53:35;10.10;99.90
1992;DHT22;997;48.448;8.924;2024-02-04T15:56:04;10.00;99.90
1992;DHT22;997;48.448;8.924;2024-02-04T15:58:36;10.00;99.90
1992;DHT22;997;48.448;8.924;2024-02-04T16:01:10;10.10;99.90
1992;DHT22;997;48.448;8.924;2024-02-04T16:03:38;10.00;99.90
1992;DHT22;997;48.448;8.924;2024-02-04T16:06:06;9.90;99.90
1992;DHT22;997;48.448;8.924;2024-02-04T16:08:32;9.90;99.90
1992;DHT22;997;48.448;8.924;2024-02-04T16:11:04;9.90;99.90
1992;DHT22;997;48.448;8.924;2024-02-04T16:13:33;10.00;99.90
1992;DHT22;997;48.448;8.924;2024-02-04T16:16:01;10.00;99.90
1992;DHT22;997;48.448;8.924;2024-02-04T16:18:28;9.90;99.90
1992;DHT22;997;48.448;8.924;2024-02-04T16:20:54;9.70;99.90
1992;DHT22;997;48.448;8.924;2024-02-04T16:23:19;9.60;99.90
1992;DHT22;997;48.448;8.924;2024-02-04T16:25:45;9.50;99.90
1992;DHT22;997;48.448;8.924;2024-02-04T16:28:11;9.50;99.90
1992;DHT22;997;48.448;8.924;2024-02-04T16:30:37;9.40;99.90
1992;DHT22;997;48.448;8.924;2024-02-04T16:33:02;9.40;99.90
1992;DHT22;997;48.448;8.924;2024-02-04T16:35:28;9.30;99.90
1992;DHT22;997;48.448;8.924;2024-02-04T16:37:54;9.20;99.90
1992;DHT22;997;48.448;8.924;2024-02-04T16:40:20;9.30;99.90
1992;DHT22;997;48.448;8.924;2024-02-04T16:42:46;9.20;99.90
1992;DHT22;997;48.448;8.924;2024-02-04T16:45:11;9.10;99.90